sensor_id;sensor_type;location;lat;lon;timestamp;P1;durP1;ratioP1;P2;durP2;ratioP2
1577;SDS011;57623;53.608;10.004;2022-07-11T00:02:40;2.43;;;1.97;;
1577;SDS011;57623;53.608;10.004;2022-07-11T00:06:05;2.60;;;2.00;;
1577;SDS011;57623;53.608;10.004;2022-07-11T00:09:08;4.80;;;2.13;;
1577;SDS011;57623;53.608;10.004;2022-07-11T00:12:06;2.50;;;2.00;;
1577;SDS011;57623;53.608;10.004;2022-07-11T00:21:37;4.00;;;2.37;;
1577;SDS011;57623;53.608;10.004;2022-07-11T00:28:06;4.93;;;2.13;;
1577;SDS011;57623;53.608;10.004;2022-07-11T00:31:23;5.57;;;2.30;;
1577;SDS011;57623;53.608;10.004;2022-07-11T00:38:18;3.23;;;2.30;;
1577;SDS011;57623;53.608;10.004;2022-07-11T00:41:31;4.40;;;2.30;;
1577;SDS011;57623;53.608;10.004;2022-07-11T00:44:35;2.93;;;1.97;;
1577;SDS011;57623;53.608;10.004;2022-07-11T00:47:49;5.10;;;2.07;;
1577;SDS011;57623;53.608;10.004;2022-07-11T00:51:05;1.93;;;1.80;;
1577;SDS011;57623;53.608;10.004;2022-07-11T00:54:03;3.80;;;2.23;;
1577;SDS011;57623;53.608;10.004;2022-07-11T00:57:19;2.73;;;2.03;;
1577;SDS011;57623;53.608;10.004;2022-07-11T01:00:28;2.70;;;2.20;;
1577;SDS011;57623;53.608;10.004;2022-07-11T01:03:33;4.17;;;2.20;;
1577;SDS011;57623;53.608;10.004;2022-07-11T01:06:55;2.20;;;2.00;;
1577;SDS011;57623;53.608;10.004;2022-07-11T01:10:22;5.13;;;2.33;;
1577;SDS011;57623;53.608;10.004;2022-07-11T01:13:22;3.83;;;2.00;;
1577;SDS011;57623;53.608;10.004;2022-07-11T01:16:34;2.97;;;2.40;;
1577;SDS011;57623;53.608;10.004;2022-07-11T01:20:09;2.10;;;1.90;;
1577;SDS011;57623;53.608;10.004;2022-07-11T01:23:22;3.23;;;1.97;;
1577;SDS011;57623;53.608;10.004;2022-07-11T01:26:43;2.67;;;2.10;;
1577;SDS011;57623;53.608;10.004;2022-07-11T01:29:59;2.40;;;1.70;;
1577;SDS011;57623;53.608;10.004;2022-07-11T01:33:11;3.57;;;1.97;;
1577;SDS011;57623;53.608;10.004;2022-07-11T01:36:26;4.43;;;2.47;;
1577;SDS011;57623;53.608;10.004;2022-07-11T01:39:46;2.77;;;1.80;;
1577;SDS011;57623;53.608;10.004;2022-07-11T01:43:10;2.63;;;1.70;;
1577;SDS011;57623;53.608;10.004;2022-07-11T01:46:29;2.70;;;1.90;;
1577;SDS011;57623;53.608;10.004;2022-07-11T01:49:33;3.60;;;1.97;;
1577;SDS011;57623;53.608;10.004;2022-07-11T01:52:41;3.10;;;2.10;;
1577;SDS011;57623;53.608;10.004;2022-07-11T01:55:51;1.90;;;1.50;;
1577;SDS011;57623;53.608;10.004;2022-07-11T01:59:12;2.37;;;1.60;;
1577;SDS011;57623;53.608;10.004;2022-07-11T02:02:11;5.33;;;1.97;;
1577;SDS011;57623;53.608;10.004;2022-07-11T02:05:15;2.80;;;2.00;;
1577;SDS011;57623;53.608;10.004;2022-07-11T02:12:13;2.00;;;1.80;;
1577;SDS011;57623;53.608;10.004;2022-07-11T02:16:05;3.13;;;2.10;;
1577;SDS011;57623;53.608;10.004;2022-07-11T02:19:20;2.53;;;1.70;;
1577;SDS011;57623;53.608;10.004;2022-07-11T02:23:02;2.43;;;1.90;;
1577;SDS011;57623;53.608;10.004;2022-07-11T02:26:21;2.13;;;1.60;;
1577;SDS011;57623;53.608;10.004;2022-07-11T02:29:16;2.30;;;1.70;;
1577;SDS011;57623;53.608;10.004;2022-07-11T02:32:18;3.10;;;1.60;;
1577;SDS011;57623;53.608;10.004;2022-07-11T02:35:31;6.00;;;2.53;;
1577;SDS011;57623;53.608;10.004;2022-07-11T02:38:56;3.17;;;2.37;;
1577;SDS011;57623;53.608;10.004;2022-07-11T02:45:27;2.10;;;1.90;;
1577;SDS011;57623;53.608;10.004;2022-07-11T02:48:29;1.90;;;1.80;;
1577;SDS011;57623;53.608;10.004;2022-07-11T02:51:37;4.90;;;2.13;;
1577;SDS011;57623;53.608;10.004;2022-07-11T02:54:38;2.33;;;2.13;;
1577;SDS011;57623;53.608;10.004;2022-07-11T02:57:45;2.33;;;1.80;;
1577;SDS011;57623;53.608;10.004;2022-07-11T03:00:45;5.37;;;1.63;;
1577;SDS011;57623;53.608;10.004;2022-07-11T03:03:49;1.83;;;1.70;;
1577;SDS011;57623;53.608;10.004;2022-07-11T03:06:58;1.73;;;1.50;;
1577;SDS011;57623;53.608;10.004;2022-07-11T03:13:26;2.53;;;2.33;;
1577;SDS011;57623;53.608;10.004;2022-07-11T03:17:01;4.23;;;1.90;;
1577;SDS011;57623;53.608;10.004;2022-07-11T03:23:27;2.90;;;1.90;;
1577;SDS011;57623;53.608;10.004;2022-07-11T03:26:41;1.70;;;1.60;;
1577;SDS011;57623;53.608;10.004;2022-07-11T03:30:02;2.03;;;1.70;;
1577;SDS011;57623;53.608;10.004;2022-07-11T03:33:05;2.30;;;1.80;;
1577;SDS011;57623;53.608;10.004;2022-07-11T03:36:05;1.70;;;1.60;;
1577;SDS011;57623;53.608;10.004;2022-07-11T03:39:23;2.20;;;2.00;;
1577;SDS011;57623;53.608;10.004;2022-07-11T03:42:22;2.33;;;1.63;;
1577;SDS011;57623;53.608;10.004;2022-07-11T03:45:37;2.93;;;1.90;;
1577;SDS011;57623;53.608;10.004;2022-07-11T03:48:52;2.10;;;1.80;;
1577;SDS011;57623;53.608;10.004;2022-07-11T03:52:22;1.90;;;1.80;;
1577;SDS011;57623;53.608;10.004;2022-07-11T03:55:44;2.40;;;2.20;;
1577;SDS011;57623;53.608;10.004;2022-07-11T03:58:54;2.50;;;1.70;;
1577;SDS011;57623;53.608;10.004;2022-07-11T04:01:57;1.93;;;1.80;;
1577;SDS011;57623;53.608;10.004;2022-07-11T04:04:50;1.97;;;1.77;;
1577;SDS011;57623;53.608;10.004;2022-07-11T04:08:10;2.83;;;1.90;;
1577;SDS011;57623;53.608;10.004;2022-07-11T04:11:23;3.03;;;1.97;;
1577;SDS011;57623;53.608;10.004;2022-07-11T04:18:02;3.00;;;1.80;;
1577;SDS011;57623;53.608;10.004;2022-07-11T04:21:27;1.80;;;1.70;;
1577;SDS011;57623;53.608;10.004;2022-07-11T04:24:35;3.43;;;1.83;;
1577;SDS011;57623;53.608;10.004;2022-07-11T04:27:48;2.07;;;1.70;;
1577;SDS011;57623;53.608;10.004;2022-07-11T04:31:06;2.70;;;1.90;;
1577;SDS011;57623;53.608;10.004;2022-07-11T04:37:50;2.13;;;1.83;;
1577;SDS011;57623;53.608;10.004;2022-07-11T04:41:03;2.33;;;2.00;;
1577;SDS011;57623;53.608;10.004;2022-07-11T04:43:53;2.13;;;1.73;;
1577;SDS011;57623;53.608;10.004;2022-07-11T04:46:56;2.77;;;2.00;;
1577;SDS011;57623;53.608;10.004;2022-07-11T04:50:17;2.20;;;2.10;;
1577;SDS011;57623;53.608;10.004;2022-07-11T04:53:36;4.13;;;1.87;;
1577;SDS011;57623;53.608;10.004;2022-07-11T04:56:47;4.40;;;2.57;;
1577;SDS011;57623;53.608;10.004;2022-07-11T04:59:47;2.40;;;2.10;;
1577;SDS011;57623;53.608;10.004;2022-07-11T05:02:54;3.07;;;2.20;;
1577;SDS011;57623;53.608;10.004;2022-07-11T05:09:50;4.00;;;2.20;;
1577;SDS011;57623;53.608;10.004;2022-07-11T05:12:50;3.97;;;2.30;;
1577;SDS011;57623;53.608;10.004;2022-07-11T05:15:41;3.50;;;2.27;;
1577;SDS011;57623;53.608;10.004;2022-07-11T05:18:30;3.33;;;2.50;;
1577;SDS011;57623;53.608;10.004;2022-07-11T05:21:25;3.43;;;2.50;;
1577;SDS011;57623;53.608;10.004;2022-07-11T05:24:14;3.80;;;2.70;;
1577;SDS011;57623;53.608;10.004;2022-07-11T05:27:07;6.40;;;2.50;;
1577;SDS011;57623;53.608;10.004;2022-07-11T05:30:00;4.90;;;2.50;;
1577;SDS011;57623;53.608;10.004;2022-07-11T05:32:52;4.90;;;2.40;;
1577;SDS011;57623;53.608;10.004;2022-07-11T05:35:43;9.10;;;2.60;;
1577;SDS011;57623;53.608;10.004;2022-07-11T05:38:39;4.07;;;2.63;;
1577;SDS011;57623;53.608;10.004;2022-07-11T05:41:32;6.60;;;2.70;;
1577;SDS011;57623;53.608;10.004;2022-07-11T05:44:27;3.60;;;2.30;;
1577;SDS011;57623;53.608;10.004;2022-07-11T05:47:23;5.17;;;2.47;;
1577;SDS011;57623;53.608;10.004;2022-07-11T05:50:31;6.20;;;2.93;;
1577;SDS011;57623;53.608;10.004;2022-07-11T05:53:23;4.40;;;2.40;;
1577;SDS011;57623;53.608;10.004;2022-07-11T05:56:17;2.63;;;2.30;;
1577;SDS011;57623;53.608;10.004;2022-07-11T05:59:13;6.07;;;2.50;;
1577;SDS011;57623;53.608;10.004;2022-07-11T06:02:10;4.23;;;2.17;;
1577;SDS011;57623;53.608;10.004;2022-07-11T06:04:59;2.90;;;1.90;;
1577;SDS011;57623;53.608;10.004;2022-07-11T06:07:48;3.07;;;2.30;;
1577;SDS011;57623;53.608;10.004;2022-07-11T06:10:53;3.70;;;2.47;;
1577;SDS011;57623;53.608;10.004;2022-07-11T06:13:43;5.70;;;2.27;;
1577;SDS011;57623;53.608;10.004;2022-07-11T06:16:32;3.40;;;2.30;;
1577;SDS011;57623;53.608;10.004;2022-07-11T06:19:21;4.10;;;1.93;;
1577;SDS011;57623;53.608;10.004;2022-07-11T06:22:13;6.63;;;2.00;;
1577;SDS011;57623;53.608;10.004;2022-07-11T06:25:04;2.30;;;1.60;;
1577;SDS011;57623;53.608;10.004;2022-07-11T06:27:57;4.90;;;2.07;;
1577;SDS011;57623;53.608;10.004;2022-07-11T06:30:48;6.30;;;2.10;;
1577;SDS011;57623;53.608;10.004;2022-07-11T06:33:37;2.23;;;1.73;;
1577;SDS011;57623;53.608;10.004;2022-07-11T06:36:26;5.47;;;2.07;;
1577;SDS011;57623;53.608;10.004;2022-07-11T06:39:14;7.13;;;1.60;;
1577;SDS011;57623;53.608;10.004;2022-07-11T06:42:03;4.67;;;1.90;;
1577;SDS011;57623;53.608;10.004;2022-07-11T06:44:51;3.00;;;1.70;;
1577;SDS011;57623;53.608;10.004;2022-07-11T06:47:42;2.67;;;2.10;;
1577;SDS011;57623;53.608;10.004;2022-07-11T06:50:32;5.20;;;2.57;;
1577;SDS011;57623;53.608;10.004;2022-07-11T06:53:23;2.60;;;1.73;;
1577;SDS011;57623;53.608;10.004;2022-07-11T06:56:12;2.43;;;1.50;;
1577;SDS011;57623;53.608;10.004;2022-07-11T06:59:04;2.87;;;1.67;;
1577;SDS011;57623;53.608;10.004;2022-07-11T07:01:52;4.10;;;2.07;;
1577;SDS011;57623;53.608;10.004;2022-07-11T07:04:42;2.30;;;1.53;;
1577;SDS011;57623;53.608;10.004;2022-07-11T07:07:30;4.73;;;2.00;;
1577;SDS011;57623;53.608;10.004;2022-07-11T07:10:19;2.90;;;1.60;;
1577;SDS011;57623;53.608;10.004;2022-07-11T07:13:08;4.20;;;1.60;;
1577;SDS011;57623;53.608;10.004;2022-07-11T07:15:57;4.07;;;1.60;;
1577;SDS011;57623;53.608;10.004;2022-07-11T07:18:47;2.10;;;1.50;;
1577;SDS011;57623;53.608;10.004;2022-07-11T07:21:38;2.07;;;1.87;;
1577;SDS011;57623;53.608;10.004;2022-07-11T07:24:27;3.07;;;1.60;;
1577;SDS011;57623;53.608;10.004;2022-07-11T07:27:15;3.00;;;1.83;;
1577;SDS011;57623;53.608;10.004;2022-07-11T07:30:04;3.40;;;1.80;;
1577;SDS011;57623;53.608;10.004;2022-07-11T07:32:53;2.23;;;1.60;;
1577;SDS011;57623;53.608;10.004;2022-07-11T07:35:41;3.67;;;1.60;;
1577;SDS011;57623;53.608;10.004;2022-07-11T07:38:31;2.60;;;1.90;;
1577;SDS011;57623;53.608;10.004;2022-07-11T07:41:19;1.70;;;1.60;;
1577;SDS011;57623;53.608;10.004;2022-07-11T07:44:08;2.43;;;1.80;;
1577;SDS011;57623;53.608;10.004;2022-07-11T07:46:57;4.57;;;1.67;;
1577;SDS011;57623;53.608;10.004;2022-07-11T07:49:45;3.07;;;1.30;;
1577;SDS011;57623;53.608;10.004;2022-07-11T07:52:33;4.90;;;2.13;;
1577;SDS011;57623;53.608;10.004;2022-07-11T07:55:23;1.40;;;1.30;;
1577;SDS011;57623;53.608;10.004;2022-07-11T07:58:14;2.53;;;1.63;;
1577;SDS011;57623;53.608;10.004;2022-07-11T08:01:05;1.97;;;1.30;;
1577;SDS011;57623;53.608;10.004;2022-07-11T08:04:12;2.37;;;1.23;;
1577;SDS011;57623;53.608;10.004;2022-07-11T08:07:03;1.83;;;1.47;;
1577;SDS011;57623;53.608;10.004;2022-07-11T08:09:53;1.57;;;1.20;;
1577;SDS011;57623;53.608;10.004;2022-07-11T08:12:42;2.27;;;1.37;;
1577;SDS011;57623;53.608;10.004;2022-07-11T08:15:32;2.50;;;1.50;;
1577;SDS011;57623;53.608;10.004;2022-07-11T08:18:20;2.03;;;1.30;;
1577;SDS011;57623;53.608;10.004;2022-07-11T08:21:09;1.40;;;1.30;;
1577;SDS011;57623;53.608;10.004;2022-07-11T08:24:00;2.30;;;1.30;;
1577;SDS011;57623;53.608;10.004;2022-07-11T08:26:49;2.03;;;1.43;;
1577;SDS011;57623;53.608;10.004;2022-07-11T08:30:02;3.23;;;1.23;;
1577;SDS011;57623;53.608;10.004;2022-07-11T08:32:53;1.73;;;1.20;;
1577;SDS011;57623;53.608;10.004;2022-07-11T08:35:41;3.47;;;1.67;;
1577;SDS011;57623;53.608;10.004;2022-07-11T08:38:29;2.07;;;1.40;;
1577;SDS011;57623;53.608;10.004;2022-07-11T08:41:18;1.20;;;1.10;;
1577;SDS011;57623;53.608;10.004;2022-07-11T08:44:06;2.00;;;1.37;;
1577;SDS011;57623;53.608;10.004;2022-07-11T08:46:57;2.37;;;1.30;;
1577;SDS011;57623;53.608;10.004;2022-07-11T08:49:45;4.90;;;1.10;;
1577;SDS011;57623;53.608;10.004;2022-07-11T08:52:36;3.20;;;1.33;;
1577;SDS011;57623;53.608;10.004;2022-07-11T08:55:25;1.30;;;1.20;;
1577;SDS011;57623;53.608;10.004;2022-07-11T08:58:13;2.43;;;1.30;;
1577;SDS011;57623;53.608;10.004;2022-07-11T09:01:03;4.00;;;1.27;;
1577;SDS011;57623;53.608;10.004;2022-07-11T09:04:00;3.40;;;1.70;;
1577;SDS011;57623;53.608;10.004;2022-07-11T09:06:49;1.53;;;1.00;;
1577;SDS011;57623;53.608;10.004;2022-07-11T09:09:37;1.80;;;0.93;;
1577;SDS011;57623;53.608;10.004;2022-07-11T09:12:26;1.70;;;1.37;;
1577;SDS011;57623;53.608;10.004;2022-07-11T09:15:14;1.33;;;0.80;;
1577;SDS011;57623;53.608;10.004;2022-07-11T09:18:30;1.57;;;1.10;;
1577;SDS011;57623;53.608;10.004;2022-07-11T09:21:21;1.53;;;0.90;;
1577;SDS011;57623;53.608;10.004;2022-07-11T09:24:27;2.00;;;1.27;;
1577;SDS011;57623;53.608;10.004;2022-07-11T09:27:40;2.10;;;1.20;;
1577;SDS011;57623;53.608;10.004;2022-07-11T09:30:31;1.97;;;1.00;;
1577;SDS011;57623;53.608;10.004;2022-07-11T09:33:22;1.20;;;1.03;;
1577;SDS011;57623;53.608;10.004;2022-07-11T09:36:10;1.37;;;1.10;;
1577;SDS011;57623;53.608;10.004;2022-07-11T09:39:01;1.10;;;1.00;;
1577;SDS011;57623;53.608;10.004;2022-07-11T09:41:53;1.17;;;1.07;;
1577;SDS011;57623;53.608;10.004;2022-07-11T09:44:43;1.27;;;0.90;;
1577;SDS011;57623;53.608;10.004;2022-07-11T09:47:41;1.33;;;1.23;;
1577;SDS011;57623;53.608;10.004;2022-07-11T09:50:31;1.47;;;1.10;;
1577;SDS011;57623;53.608;10.004;2022-07-11T09:53:19;3.17;;;0.70;;
1577;SDS011;57623;53.608;10.004;2022-07-11T09:56:11;1.00;;;0.90;;
1577;SDS011;57623;53.608;10.004;2022-07-11T09:59:22;1.47;;;1.10;;
1577;SDS011;57623;53.608;10.004;2022-07-11T10:02:10;1.30;;;1.17;;
1577;SDS011;57623;53.608;10.004;2022-07-11T10:05:01;1.80;;;1.07;;
1577;SDS011;57623;53.608;10.004;2022-07-11T10:07:54;1.27;;;0.80;;
1577;SDS011;57623;53.608;10.004;2022-07-11T10:10:44;2.03;;;1.10;;
1577;SDS011;57623;53.608;10.004;2022-07-11T10:13:33;1.70;;;1.00;;
1577;SDS011;57623;53.608;10.004;2022-07-11T10:16:24;1.20;;;0.90;;
1577;SDS011;57623;53.608;10.004;2022-07-11T10:19:22;1.23;;;1.00;;
1577;SDS011;57623;53.608;10.004;2022-07-11T10:22:19;1.90;;;0.87;;
1577;SDS011;57623;53.608;10.004;2022-07-11T10:25:17;1.20;;;1.00;;
1577;SDS011;57623;53.608;10.004;2022-07-11T10:28:12;2.20;;;0.90;;
1577;SDS011;57623;53.608;10.004;2022-07-11T10:31:18;1.90;;;1.07;;
1577;SDS011;57623;53.608;10.004;2022-07-11T10:34:08;2.27;;;1.30;;
1577;SDS011;57623;53.608;10.004;2022-07-11T10:37:03;1.33;;;1.23;;
1577;SDS011;57623;53.608;10.004;2022-07-11T10:39:56;2.30;;;1.23;;
1577;SDS011;57623;53.608;10.004;2022-07-11T10:42:46;1.97;;;1.30;;
1577;SDS011;57623;53.608;10.004;2022-07-11T10:45:53;1.50;;;1.40;;
1577;SDS011;57623;53.608;10.004;2022-07-11T10:48:55;1.40;;;1.30;;
1577;SDS011;57623;53.608;10.004;2022-07-11T10:51:52;1.30;;;1.20;;
1577;SDS011;57623;53.608;10.004;2022-07-11T10:55:07;1.20;;;1.20;;
1577;SDS011;57623;53.608;10.004;2022-07-11T10:58:11;2.53;;;1.27;;
1577;SDS011;57623;53.608;10.004;2022-07-11T11:01:10;1.03;;;1.03;;
1577;SDS011;57623;53.608;10.004;2022-07-11T11:07:32;1.17;;;0.90;;
1577;SDS011;57623;53.608;10.004;2022-07-11T11:13:38;1.20;;;1.10;;
1577;SDS011;57623;53.608;10.004;2022-07-11T11:16:30;1.50;;;1.30;;
1577;SDS011;57623;53.608;10.004;2022-07-11T11:22:43;1.40;;;1.00;;
1577;SDS011;57623;53.608;10.004;2022-07-11T11:26:03;1.50;;;1.20;;
1577;SDS011;57623;53.608;10.004;2022-07-11T11:28:55;1.10;;;1.10;;
1577;SDS011;57623;53.608;10.004;2022-07-11T11:31:47;2.30;;;1.30;;
1577;SDS011;57623;53.608;10.004;2022-07-11T11:34:38;1.67;;;1.57;;
1577;SDS011;57623;53.608;10.004;2022-07-11T11:37:27;1.93;;;1.60;;
1577;SDS011;57623;53.608;10.004;2022-07-11T11:40:17;1.90;;;1.80;;
1577;SDS011;57623;53.608;10.004;2022-07-11T11:43:06;1.90;;;1.80;;
1577;SDS011;57623;53.608;10.004;2022-07-11T11:45:54;1.40;;;1.30;;
1577;SDS011;57623;53.608;10.004;2022-07-11T11:48:43;3.13;;;1.40;;
1577;SDS011;57623;53.608;10.004;2022-07-11T11:51:33;2.30;;;1.50;;
1577;SDS011;57623;53.608;10.004;2022-07-11T11:54:21;1.60;;;1.50;;
1577;SDS011;57623;53.608;10.004;2022-07-11T11:57:12;1.80;;;1.70;;
1577;SDS011;57623;53.608;10.004;2022-07-11T12:00:01;2.40;;;2.20;;
1577;SDS011;57623;53.608;10.004;2022-07-11T12:02:51;2.67;;;2.47;;
1577;SDS011;57623;53.608;10.004;2022-07-11T12:05:40;2.30;;;2.20;;
1577;SDS011;57623;53.608;10.004;2022-07-11T12:08:40;2.33;;;2.23;;
1577;SDS011;57623;53.608;10.004;2022-07-11T12:11:31;2.30;;;1.73;;
1577;SDS011;57623;53.608;10.004;2022-07-11T12:14:20;1.90;;;1.80;;
1577;SDS011;57623;53.608;10.004;2022-07-11T12:17:09;1.70;;;1.60;;
1577;SDS011;57623;53.608;10.004;2022-07-11T12:19:58;1.90;;;1.80;;
1577;SDS011;57623;53.608;10.004;2022-07-11T12:22:48;2.17;;;2.07;;
1577;SDS011;57623;53.608;10.004;2022-07-11T12:25:36;1.63;;;1.53;;
1577;SDS011;57623;53.608;10.004;2022-07-11T12:28:25;1.70;;;1.60;;
1577;SDS011;57623;53.608;10.004;2022-07-11T12:31:15;1.90;;;1.67;;
1577;SDS011;57623;53.608;10.004;2022-07-11T12:34:03;2.43;;;2.30;;
1577;SDS011;57623;53.608;10.004;2022-07-11T12:37:00;2.37;;;2.17;;
1577;SDS011;57623;53.608;10.004;2022-07-11T12:39:50;2.63;;;2.50;;
1577;SDS011;57623;53.608;10.004;2022-07-11T12:42:39;2.60;;;2.50;;
1577;SDS011;57623;53.608;10.004;2022-07-11T12:45:28;2.80;;;2.70;;
1577;SDS011;57623;53.608;10.004;2022-07-11T12:48:16;2.63;;;2.53;;
1577;SDS011;57623;53.608;10.004;2022-07-11T12:51:05;2.67;;;2.57;;
1577;SDS011;57623;53.608;10.004;2022-07-11T12:53:58;2.50;;;2.40;;
1577;SDS011;57623;53.608;10.004;2022-07-11T12:56:51;2.40;;;2.30;;
1577;SDS011;57623;53.608;10.004;2022-07-11T12:59:41;2.30;;;2.20;;
1577;SDS011;57623;53.608;10.004;2022-07-11T13:02:29;2.30;;;2.20;;
1577;SDS011;57623;53.608;10.004;2022-07-11T13:05:23;1.90;;;1.80;;
1577;SDS011;57623;53.608;10.004;2022-07-11T13:08:20;2.20;;;2.10;;
1577;SDS011;57623;53.608;10.004;2022-07-11T13:11:27;2.03;;;1.93;;
1577;SDS011;57623;53.608;10.004;2022-07-11T13:14:17;1.97;;;1.77;;
1577;SDS011;57623;53.608;10.004;2022-07-11T13:17:23;1.80;;;1.70;;
1577;SDS011;57623;53.608;10.004;2022-07-11T13:20:13;1.73;;;1.70;;
1577;SDS011;57623;53.608;10.004;2022-07-11T13:23:04;2.23;;;2.00;;
1577;SDS011;57623;53.608;10.004;2022-07-11T13:25:59;1.63;;;1.53;;
1577;SDS011;57623;53.608;10.004;2022-07-11T13:28:50;1.60;;;1.50;;
1577;SDS011;57623;53.608;10.004;2022-07-11T13:31:40;1.67;;;1.57;;
1577;SDS011;57623;53.608;10.004;2022-07-11T13:34:28;4.60;;;1.70;;
1577;SDS011;57623;53.608;10.004;2022-07-11T13:37:20;1.90;;;1.80;;
1577;SDS011;57623;53.608;10.004;2022-07-11T13:40:10;2.10;;;1.87;;
1577;SDS011;57623;53.608;10.004;2022-07-11T13:43:00;1.80;;;1.70;;
1577;SDS011;57623;53.608;10.004;2022-07-11T13:45:49;2.10;;;1.90;;
1577;SDS011;57623;53.608;10.004;2022-07-11T13:48:38;1.83;;;1.73;;
1577;SDS011;57623;53.608;10.004;2022-07-11T13:51:29;2.30;;;2.20;;
1577;SDS011;57623;53.608;10.004;2022-07-11T13:54:17;1.60;;;1.50;;
1577;SDS011;57623;53.608;10.004;2022-07-11T13:57:07;1.50;;;1.40;;
1577;SDS011;57623;53.608;10.004;2022-07-11T13:59:57;1.83;;;1.43;;
1577;SDS011;57623;53.608;10.004;2022-07-11T14:02:49;1.57;;;1.47;;
1577;SDS011;57623;53.608;10.004;2022-07-11T14:05:38;1.30;;;1.20;;
1577;SDS011;57623;53.608;10.004;2022-07-11T14:08:29;1.83;;;1.73;;
1577;SDS011;57623;53.608;10.004;2022-07-11T14:11:20;1.40;;;1.30;;
1577;SDS011;57623;53.608;10.004;2022-07-11T14:14:10;2.60;;;1.20;;
1577;SDS011;57623;53.608;10.004;2022-07-11T14:16:58;1.00;;;0.90;;
1577;SDS011;57623;53.608;10.004;2022-07-11T14:19:46;2.70;;;1.07;;
1577;SDS011;57623;53.608;10.004;2022-07-11T14:22:35;1.00;;;1.00;;
1577;SDS011;57623;53.608;10.004;2022-07-11T14:25:23;0.97;;;0.97;;
1577;SDS011;57623;53.608;10.004;2022-07-11T14:28:12;1.00;;;1.00;;
1577;SDS011;57623;53.608;10.004;2022-07-11T14:31:09;0.70;;;0.70;;
1577;SDS011;57623;53.608;10.004;2022-07-11T14:33:58;0.83;;;0.83;;
1577;SDS011;57623;53.608;10.004;2022-07-11T14:36:47;1.90;;;0.90;;
1577;SDS011;57623;53.608;10.004;2022-07-11T14:39:36;1.33;;;0.70;;
1577;SDS011;57623;53.608;10.004;2022-07-11T14:42:24;0.80;;;0.80;;
1577;SDS011;57623;53.608;10.004;2022-07-11T14:45:26;2.47;;;1.00;;
1577;SDS011;57623;53.608;10.004;2022-07-11T14:48:16;1.00;;;0.60;;
1577;SDS011;57623;53.608;10.004;2022-07-11T14:51:05;1.07;;;0.70;;
1577;SDS011;57623;53.608;10.004;2022-07-11T14:53:55;2.20;;;0.80;;
1577;SDS011;57623;53.608;10.004;2022-07-11T14:56:43;0.90;;;0.90;;
1577;SDS011;57623;53.608;10.004;2022-07-11T14:59:35;0.73;;;0.70;;
1577;SDS011;57623;53.608;10.004;2022-07-11T15:02:25;0.80;;;0.77;;
1577;SDS011;57623;53.608;10.004;2022-07-11T15:05:32;1.90;;;0.90;;
1577;SDS011;57623;53.608;10.004;2022-07-11T15:08:21;0.70;;;0.70;;
1577;SDS011;57623;53.608;10.004;2022-07-11T15:11:27;0.77;;;0.77;;
1577;SDS011;57623;53.608;10.004;2022-07-11T15:14:33;0.70;;;0.70;;
1577;SDS011;57623;53.608;10.004;2022-07-11T15:17:21;2.30;;;0.80;;
1577;SDS011;57623;53.608;10.004;2022-07-11T15:20:11;0.60;;;0.60;;
1577;SDS011;57623;53.608;10.004;2022-07-11T15:23:02;1.03;;;0.63;;
1577;SDS011;57623;53.608;10.004;2022-07-11T15:25:53;0.80;;;0.80;;
1577;SDS011;57623;53.608;10.004;2022-07-11T15:28:41;2.47;;;0.70;;
1577;SDS011;57623;53.608;10.004;2022-07-11T15:31:30;0.80;;;0.70;;
1577;SDS011;57623;53.608;10.004;2022-07-11T15:34:18;0.70;;;0.70;;
1577;SDS011;57623;53.608;10.004;2022-07-11T15:37:07;1.00;;;0.90;;
1577;SDS011;57623;53.608;10.004;2022-07-11T15:39:56;0.60;;;0.60;;
1577;SDS011;57623;53.608;10.004;2022-07-11T15:42:51;1.07;;;0.80;;
1577;SDS011;57623;53.608;10.004;2022-07-11T15:45:39;1.03;;;0.93;;
1577;SDS011;57623;53.608;10.004;2022-07-11T15:48:28;0.57;;;0.57;;
1577;SDS011;57623;53.608;10.004;2022-07-11T15:51:23;0.70;;;0.70;;
1577;SDS011;57623;53.608;10.004;2022-07-11T15:54:12;0.87;;;0.80;;
1577;SDS011;57623;53.608;10.004;2022-07-11T15:57:04;0.87;;;0.80;;
1577;SDS011;57623;53.608;10.004;2022-07-11T15:59:53;1.37;;;0.90;;
1577;SDS011;57623;53.608;10.004;2022-07-11T16:02:45;2.50;;;0.80;;
1577;SDS011;57623;53.608;10.004;2022-07-11T16:05:37;0.80;;;0.80;;
1577;SDS011;57623;53.608;10.004;2022-07-11T16:08:25;0.77;;;0.70;;
1577;SDS011;57623;53.608;10.004;2022-07-11T16:11:13;0.70;;;0.70;;
1577;SDS011;57623;53.608;10.004;2022-07-11T16:14:03;1.40;;;0.80;;
1577;SDS011;57623;53.608;10.004;2022-07-11T16:16:52;2.50;;;0.80;;
1577;SDS011;57623;53.608;10.004;2022-07-11T16:19:40;0.50;;;0.50;;
1577;SDS011;57623;53.608;10.004;2022-07-11T16:22:29;0.70;;;0.70;;
1577;SDS011;57623;53.608;10.004;2022-07-11T16:25:18;1.60;;;0.80;;
1577;SDS011;57623;53.608;10.004;2022-07-11T16:28:06;0.73;;;0.73;;
1577;SDS011;57623;53.608;10.004;2022-07-11T16:31:01;0.70;;;0.70;;
1577;SDS011;57623;53.608;10.004;2022-07-11T16:33:52;0.70;;;0.70;;
1577;SDS011;57623;53.608;10.004;2022-07-11T16:36:40;0.60;;;0.60;;
1577;SDS011;57623;53.608;10.004;2022-07-11T16:39:31;0.73;;;0.73;;
1577;SDS011;57623;53.608;10.004;2022-07-11T16:42:40;1.57;;;0.90;;
1577;SDS011;57623;53.608;10.004;2022-07-11T16:45:47;0.70;;;0.70;;
1577;SDS011;57623;53.608;10.004;2022-07-11T16:48:37;0.70;;;0.70;;
1577;SDS011;57623;53.608;10.004;2022-07-11T16:51:27;1.13;;;0.80;;
1577;SDS011;57623;53.608;10.004;2022-07-11T16:54:20;1.00;;;0.60;;
1577;SDS011;57623;53.608;10.004;2022-07-11T16:57:09;0.63;;;0.63;;
1577;SDS011;57623;53.608;10.004;2022-07-11T16:59:57;0.90;;;0.90;;
1577;SDS011;57623;53.608;10.004;2022-07-11T17:02:45;0.80;;;0.70;;
1577;SDS011;57623;53.608;10.004;2022-07-11T17:05:37;1.00;;;0.80;;
1577;SDS011;57623;53.608;10.004;2022-07-11T17:08:28;0.80;;;0.70;;
1577;SDS011;57623;53.608;10.004;2022-07-11T17:11:31;0.70;;;0.70;;
1577;SDS011;57623;53.608;10.004;2022-07-11T17:14:20;0.97;;;0.70;;
1577;SDS011;57623;53.608;10.004;2022-07-11T17:17:09;0.70;;;0.70;;
1577;SDS011;57623;53.608;10.004;2022-07-11T17:19:57;1.10;;;0.90;;
1577;SDS011;57623;53.608;10.004;2022-07-11T17:22:47;1.60;;;0.93;;
1577;SDS011;57623;53.608;10.004;2022-07-11T17:25:35;1.70;;;0.87;;
1577;SDS011;57623;53.608;10.004;2022-07-11T17:28:24;1.77;;;1.53;;
1577;SDS011;57623;53.608;10.004;2022-07-11T17:31:14;3.43;;;3.20;;
1577;SDS011;57623;53.608;10.004;2022-07-11T17:34:02;2.27;;;2.07;;
1577;SDS011;57623;53.608;10.004;2022-07-11T17:36:53;2.30;;;2.10;;
1577;SDS011;57623;53.608;10.004;2022-07-11T17:39:42;1.23;;;1.13;;
1577;SDS011;57623;53.608;10.004;2022-07-11T17:42:31;2.03;;;1.93;;
1577;SDS011;57623;53.608;10.004;2022-07-11T17:45:20;1.30;;;1.20;;
1577;SDS011;57623;53.608;10.004;2022-07-11T17:48:09;1.20;;;1.10;;
1577;SDS011;57623;53.608;10.004;2022-07-11T17:50:59;1.50;;;1.20;;
1577;SDS011;57623;53.608;10.004;2022-07-11T17:54:08;1.60;;;1.50;;
1577;SDS011;57623;53.608;10.004;2022-07-11T17:56:58;1.43;;;1.20;;
1577;SDS011;57623;53.608;10.004;2022-07-11T17:59:48;1.30;;;1.20;;
1577;SDS011;57623;53.608;10.004;2022-07-11T18:02:36;1.20;;;1.20;;
1577;SDS011;57623;53.608;10.004;2022-07-11T18:05:32;1.40;;;1.30;;
1577;SDS011;57623;53.608;10.004;2022-07-11T18:08:22;2.37;;;1.10;;
1577;SDS011;57623;53.608;10.004;2022-07-11T18:11:11;1.03;;;0.93;;
1577;SDS011;57623;53.608;10.004;2022-07-11T18:14:01;1.10;;;1.10;;
1577;SDS011;57623;53.608;10.004;2022-07-11T18:16:49;1.10;;;1.10;;
1577;SDS011;57623;53.608;10.004;2022-07-11T18:19:40;1.20;;;1.10;;
1577;SDS011;57623;53.608;10.004;2022-07-11T18:22:28;1.37;;;1.27;;
1577;SDS011;57623;53.608;10.004;2022-07-11T18:25:16;1.20;;;1.10;;
1577;SDS011;57623;53.608;10.004;2022-07-11T18:28:05;1.23;;;1.20;;
1577;SDS011;57623;53.608;10.004;2022-07-11T18:30:55;1.40;;;1.30;;
1577;SDS011;57623;53.608;10.004;2022-07-11T18:33:43;1.23;;;1.10;;